sensor_id;sensor_type;location;lat;lon;timestamp;P1;durP1;ratioP1;P2;durP2;ratioP2
36253;SDS011;22291;52.250;21.228;2024-01-15T00:01:49;16.25;;;10.78;;
36253;SDS011;22291;52.250;21.228;2024-01-15T00:04:16;16.05;;;10.25;;
36253;SDS011;22291;52.250;21.228;2024-01-15T00:06:42;14.45;;;9.95;;
36253;SDS011;22291;52.250;21.228;2024-01-15T00:09:08;18.10;;;10.53;;
36253;SDS011;22291;52.250;21.228;2024-01-15T00:11:36;18.15;;;10.50;;
36253;SDS011;22291;52.250;21.228;2024-01-15T00:14:02;17.02;;;9.93;;
36253;SDS011;22291;52.250;21.228;2024-01-15T00:16:28;17.67;;;10.05;;
36253;SDS011;22291;52.250;21.228;2024-01-15T00:18:55;16.52;;;10.53;;
36253;SDS011;22291;52.250;21.228;2024-01-15T00:21:21;16.07;;;10.68;;
36253;SDS011;22291;52.250;21.228;2024-01-15T00:23:47;17.48;;;11.28;;
36253;SDS011;22291;52.250;21.228;2024-01-15T00:26:13;18.55;;;10.35;;
36253;SDS011;22291;52.250;21.228;2024-01-15T00:28:39;16.37;;;10.75;;
36253;SDS011;22291;52.250;21.228;2024-01-15T00:31:06;13.58;;;9.35;;
36253;SDS011;22291;52.250;21.228;2024-01-15T00:33:33;15.55;;;9.88;;
36253;SDS011;22291;52.250;21.228;2024-01-15T00:35:59;23.73;;;11.18;;
36253;SDS011;22291;52.250;21.228;2024-01-15T00:38:25;18.27;;;11.12;;
36253;SDS011;22291;52.250;21.228;2024-01-15T00:40:51;19.75;;;11.10;;
36253;SDS011;22291;52.250;21.228;2024-01-15T00:43:17;18.05;;;11.43;;
36253;SDS011;22291;52.250;21.228;2024-01-15T00:45:45;20.43;;;11.73;;
36253;SDS011;22291;52.250;21.228;2024-01-15T00:48:16;18.17;;;11.88;;
36253;SDS011;22291;52.250;21.228;2024-01-15T00:50:42;24.50;;;12.30;;
36253;SDS011;22291;52.250;21.228;2024-01-15T00:53:08;24.23;;;12.53;;
36253;SDS011;22291;52.250;21.228;2024-01-15T00:55:34;19.65;;;12.30;;
36253;SDS011;22291;52.250;21.228;2024-01-15T00:58:04;20.15;;;12.10;;
36253;SDS011;22291;52.250;21.228;2024-01-15T01:00:31;18.82;;;11.53;;
36253;SDS011;22291;52.250;21.228;2024-01-15T01:02:57;20.50;;;11.63;;
36253;SDS011;22291;52.250;21.228;2024-01-15T01:05:25;21.25;;;12.75;;
36253;SDS011;22291;52.250;21.228;2024-01-15T01:07:51;18.65;;;12.20;;
36253;SDS011;22291;52.250;21.228;2024-01-15T01:10:17;21.40;;;13.20;;
36253;SDS011;22291;52.250;21.228;2024-01-15T01:12:45;17.92;;;12.07;;
36253;SDS011;22291;52.250;21.228;2024-01-15T01:15:11;21.25;;;12.13;;
36253;SDS011;22291;52.250;21.228;2024-01-15T01:17:38;20.90;;;12.63;;
36253;SDS011;22291;52.250;21.228;2024-01-15T01:20:04;18.87;;;11.97;;
36253;SDS011;22291;52.250;21.228;2024-01-15T01:22:36;22.45;;;13.58;;
36253;SDS011;22291;52.250;21.228;2024-01-15T01:25:04;15.40;;;9.68;;
36253;SDS011;22291;52.250;21.228;2024-01-15T01:30:00;22.37;;;12.20;;
36253;SDS011;22291;52.250;21.228;2024-01-15T01:32:31;20.32;;;13.30;;
36253;SDS011;22291;52.250;21.228;2024-01-15T01:34:59;24.25;;;13.72;;
36253;SDS011;22291;52.250;21.228;2024-01-15T01:37:26;20.32;;;13.22;;
36253;SDS011;22291;52.250;21.228;2024-01-15T01:39:53;21.62;;;13.43;;
36253;SDS011;22291;52.250;21.228;2024-01-15T01:42:20;22.93;;;14.40;;
36253;SDS011;22291;52.250;21.228;2024-01-15T01:44:46;24.27;;;14.45;;
36253;SDS011;22291;52.250;21.228;2024-01-15T01:47:12;22.40;;;13.10;;
36253;SDS011;22291;52.250;21.228;2024-01-15T01:49:41;23.02;;;14.98;;
36253;SDS011;22291;52.250;21.228;2024-01-15T01:52:13;26.48;;;14.90;;
36253;SDS011;22291;52.250;21.228;2024-01-15T01:54:40;21.25;;;13.60;;
36253;SDS011;22291;52.250;21.228;2024-01-15T01:57:08;25.85;;;14.28;;
36253;SDS011;22291;52.250;21.228;2024-01-15T01:59:37;28.20;;;16.20;;
36253;SDS011;22291;52.250;21.228;2024-01-15T02:02:06;27.10;;;15.20;;
36253;SDS011;22291;52.250;21.228;2024-01-15T02:04:36;23.30;;;13.83;;
36253;SDS011;22291;52.250;21.228;2024-01-15T02:07:05;24.52;;;14.58;;
36253;SDS011;22291;52.250;21.228;2024-01-15T02:09:32;24.80;;;13.90;;
36253;SDS011;22291;52.250;21.228;2024-01-15T02:11:58;25.90;;;14.75;;
36253;SDS011;22291;52.250;21.228;2024-01-15T02:14:26;24.70;;;14.13;;
36253;SDS011;22291;52.250;21.228;2024-01-15T02:16:52;24.18;;;15.28;;
36253;SDS011;22291;52.250;21.228;2024-01-15T02:19:18;22.93;;;14.83;;
36253;SDS011;22291;52.250;21.228;2024-01-15T02:21:44;24.35;;;15.32;;
36253;SDS011;22291;52.250;21.228;2024-01-15T02:24:12;32.23;;;18.30;;
36253;SDS011;22291;52.250;21.228;2024-01-15T02:26:41;30.80;;;18.23;;
36253;SDS011;22291;52.250;21.228;2024-01-15T02:29:09;39.08;;;19.77;;
36253;SDS011;22291;52.250;21.228;2024-01-15T02:31:38;32.42;;;19.00;;
36253;SDS011;22291;52.250;21.228;2024-01-15T02:34:07;30.52;;;18.07;;
36253;SDS011;22291;52.250;21.228;2024-01-15T02:36:33;33.75;;;19.85;;
36253;SDS011;22291;52.250;21.228;2024-01-15T02:38:59;31.90;;;19.25;;
36253;SDS011;22291;52.250;21.228;2024-01-15T02:41:25;29.65;;;17.48;;
36253;SDS011;22291;52.250;21.228;2024-01-15T02:43:52;27.80;;;17.17;;
36253;SDS011;22291;52.250;21.228;2024-01-15T02:46:18;29.70;;;18.00;;
36253;SDS011;22291;52.250;21.228;2024-01-15T02:48:46;36.05;;;18.02;;
36253;SDS011;22291;52.250;21.228;2024-01-15T02:51:12;26.87;;;16.45;;
36253;SDS011;22291;52.250;21.228;2024-01-15T02:53:38;30.68;;;16.85;;
36253;SDS011;22291;52.250;21.228;2024-01-15T02:56:07;27.20;;;15.63;;
36253;SDS011;22291;52.250;21.228;2024-01-15T02:58:33;25.62;;;15.53;;
36253;SDS011;22291;52.250;21.228;2024-01-15T03:01:00;25.37;;;15.00;;
36253;SDS011;22291;52.250;21.228;2024-01-15T03:03:26;22.52;;;14.65;;
36253;SDS011;22291;52.250;21.228;2024-01-15T03:05:52;27.37;;;15.35;;
36253;SDS011;22291;52.250;21.228;2024-01-15T03:08:18;24.82;;;15.35;;
36253;SDS011;22291;52.250;21.228;2024-01-15T03:10:44;28.35;;;16.42;;
36253;SDS011;22291;52.250;21.228;2024-01-15T03:13:10;24.25;;;14.63;;
36253;SDS011;22291;52.250;21.228;2024-01-15T03:15:37;26.12;;;14.98;;
36253;SDS011;22291;52.250;21.228;2024-01-15T03:18:05;24.72;;;15.13;;
36253;SDS011;22291;52.250;21.228;2024-01-15T03:20:32;23.27;;;15.20;;
36253;SDS011;22291;52.250;21.228;2024-01-15T03:23:00;25.30;;;14.98;;
36253;SDS011;22291;52.250;21.228;2024-01-15T03:25:26;28.10;;;15.70;;
36253;SDS011;22291;52.250;21.228;2024-01-15T03:27:52;25.72;;;14.63;;
36253;SDS011;22291;52.250;21.228;2024-01-15T03:30:18;23.45;;;15.10;;
36253;SDS011;22291;52.250;21.228;2024-01-15T03:32:44;26.87;;;16.23;;
36253;SDS011;22291;52.250;21.228;2024-01-15T03:35:14;27.75;;;14.90;;
36253;SDS011;22291;52.250;21.228;2024-01-15T03:37:41;25.45;;;15.05;;
36253;SDS011;22291;52.250;21.228;2024-01-15T03:40:09;24.82;;;14.30;;
36253;SDS011;22291;52.250;21.228;2024-01-15T03:42:38;26.30;;;14.73;;
36253;SDS011;22291;52.250;21.228;2024-01-15T03:45:06;30.02;;;15.75;;
36253;SDS011;22291;52.250;21.228;2024-01-15T03:47:33;28.40;;;15.13;;
36253;SDS011;22291;52.250;21.228;2024-01-15T03:49:59;24.75;;;14.35;;
36253;SDS011;22291;52.250;21.228;2024-01-15T03:52:25;26.73;;;15.38;;
36253;SDS011;22291;52.250;21.228;2024-01-15T03:54:51;29.95;;;15.58;;
36253;SDS011;22291;52.250;21.228;2024-01-15T03:57:17;27.00;;;15.70;;
36253;SDS011;22291;52.250;21.228;2024-01-15T03:59:43;24.63;;;15.15;;
36253;SDS011;22291;52.250;21.228;2024-01-15T04:02:11;28.80;;;15.28;;
36253;SDS011;22291;52.250;21.228;2024-01-15T04:04:40;28.90;;;15.13;;
36253;SDS011;22291;52.250;21.228;2024-01-15T04:07:09;27.60;;;15.40;;
36253;SDS011;22291;52.250;21.228;2024-01-15T04:09:37;29.45;;;15.98;;
36253;SDS011;22291;52.250;21.228;2024-01-15T04:12:06;27.80;;;16.17;;
36253;SDS011;22291;52.250;21.228;2024-01-15T04:14:34;29.50;;;16.42;;
36253;SDS011;22291;52.250;21.228;2024-01-15T04:17:00;29.77;;;15.50;;
36253;SDS011;22291;52.250;21.228;2024-01-15T04:19:26;28.12;;;15.48;;
36253;SDS011;22291;52.250;21.228;2024-01-15T04:21:53;30.62;;;16.12;;
36253;SDS011;22291;52.250;21.228;2024-01-15T04:24:19;25.25;;;14.68;;
36253;SDS011;22291;52.250;21.228;2024-01-15T04:26:45;27.85;;;15.80;;
36253;SDS011;22291;52.250;21.228;2024-01-15T04:29:11;23.92;;;14.73;;
36253;SDS011;22291;52.250;21.228;2024-01-15T04:31:38;21.93;;;13.55;;
36253;SDS011;22291;52.250;21.228;2024-01-15T04:34:04;29.10;;;14.80;;
36253;SDS011;22291;52.250;21.228;2024-01-15T04:36:31;26.50;;;15.18;;
36253;SDS011;22291;52.250;21.228;2024-01-15T04:38:57;24.70;;;14.47;;
36253;SDS011;22291;52.250;21.228;2024-01-15T04:41:23;25.80;;;14.90;;
36253;SDS011;22291;52.250;21.228;2024-01-15T04:43:49;25.62;;;14.45;;
36253;SDS011;22291;52.250;21.228;2024-01-15T04:46:15;28.38;;;14.23;;
36253;SDS011;22291;52.250;21.228;2024-01-15T04:48:42;26.62;;;15.05;;
36253;SDS011;22291;52.250;21.228;2024-01-15T04:51:08;24.65;;;14.25;;
36253;SDS011;22291;52.250;21.228;2024-01-15T04:53:36;23.45;;;13.85;;
36253;SDS011;22291;52.250;21.228;2024-01-15T04:56:06;26.68;;;14.93;;
36253;SDS011;22291;52.250;21.228;2024-01-15T04:58:32;23.40;;;13.83;;
36253;SDS011;22291;52.250;21.228;2024-01-15T05:00:58;22.65;;;13.28;;
36253;SDS011;22291;52.250;21.228;2024-01-15T05:03:26;23.50;;;14.33;;
36253;SDS011;22291;52.250;21.228;2024-01-15T05:05:53;26.57;;;13.22;;
36253;SDS011;22291;52.250;21.228;2024-01-15T05:08:19;24.40;;;14.25;;
36253;SDS011;22291;52.250;21.228;2024-01-15T05:10:47;26.70;;;14.30;;
36253;SDS011;22291;52.250;21.228;2024-01-15T05:13:17;27.50;;;14.65;;
36253;SDS011;22291;52.250;21.228;2024-01-15T05:15:43;27.87;;;14.87;;
36253;SDS011;22291;52.250;21.228;2024-01-15T05:18:09;23.25;;;13.90;;
36253;SDS011;22291;52.250;21.228;2024-01-15T05:20:36;24.40;;;14.78;;
36253;SDS011;22291;52.250;21.228;2024-01-15T05:23:02;27.10;;;14.45;;
36253;SDS011;22291;52.250;21.228;2024-01-15T05:25:30;25.15;;;14.00;;
36253;SDS011;22291;52.250;21.228;2024-01-15T05:27:58;24.32;;;14.40;;
36253;SDS011;22291;52.250;21.228;2024-01-15T05:30:26;24.72;;;14.33;;
36253;SDS011;22291;52.250;21.228;2024-01-15T05:32:52;23.75;;;13.88;;
36253;SDS011;22291;52.250;21.228;2024-01-15T05:35:20;22.37;;;12.95;;
36253;SDS011;22291;52.250;21.228;2024-01-15T05:37:47;24.00;;;13.32;;
36253;SDS011;22291;52.250;21.228;2024-01-15T05:40:14;23.80;;;14.38;;
36253;SDS011;22291;52.250;21.228;2024-01-15T05:42:41;25.52;;;14.65;;
36253;SDS011;22291;52.250;21.228;2024-01-15T05:45:09;24.20;;;14.33;;
36253;SDS011;22291;52.250;21.228;2024-01-15T05:47:35;25.70;;;14.00;;
36253;SDS011;22291;52.250;21.228;2024-01-15T05:50:01;23.42;;;13.78;;
36253;SDS011;22291;52.250;21.228;2024-01-15T05:52:30;22.50;;;13.53;;
36253;SDS011;22291;52.250;21.228;2024-01-15T05:54:58;26.57;;;14.68;;
36253;SDS011;22291;52.250;21.228;2024-01-15T05:57:27;23.60;;;14.30;;
36253;SDS011;22291;52.250;21.228;2024-01-15T05:59:55;22.87;;;12.82;;
36253;SDS011;22291;52.250;21.228;2024-01-15T06:02:21;22.13;;;13.75;;
36253;SDS011;22291;52.250;21.228;2024-01-15T06:04:47;20.77;;;12.82;;
36253;SDS011;22291;52.250;21.228;2024-01-15T06:07:13;25.72;;;14.60;;
36253;SDS011;22291;52.250;21.228;2024-01-15T06:09:40;25.35;;;13.68;;
36253;SDS011;22291;52.250;21.228;2024-01-15T06:12:08;22.55;;;13.83;;
36253;SDS011;22291;52.250;21.228;2024-01-15T06:14:34;21.15;;;13.22;;
36253;SDS011;22291;52.250;21.228;2024-01-15T06:17:00;23.00;;;13.38;;
36253;SDS011;22291;52.250;21.228;2024-01-15T06:19:26;23.95;;;13.08;;
36253;SDS011;22291;52.250;21.228;2024-01-15T06:21:53;21.05;;;13.38;;
36253;SDS011;22291;52.250;21.228;2024-01-15T06:24:19;20.88;;;13.22;;
36253;SDS011;22291;52.250;21.228;2024-01-15T06:26:47;20.72;;;13.13;;
36253;SDS011;22291;52.250;21.228;2024-01-15T06:29:15;20.97;;;13.65;;
36253;SDS011;22291;52.250;21.228;2024-01-15T06:31:41;22.37;;;13.15;;
36253;SDS011;22291;52.250;21.228;2024-01-15T06:34:07;19.55;;;13.15;;
36253;SDS011;22291;52.250;21.228;2024-01-15T06:36:33;22.77;;;13.60;;
36253;SDS011;22291;52.250;21.228;2024-01-15T06:38:59;21.40;;;13.32;;
36253;SDS011;22291;52.250;21.228;2024-01-15T06:41:27;23.40;;;13.38;;
36253;SDS011;22291;52.250;21.228;2024-01-15T06:43:54;18.52;;;11.93;;
36253;SDS011;22291;52.250;21.228;2024-01-15T06:46:22;19.87;;;11.73;;
36253;SDS011;22291;52.250;21.228;2024-01-15T06:48:49;22.02;;;12.68;;
36253;SDS011;22291;52.250;21.228;2024-01-15T06:51:17;19.52;;;13.83;;
36253;SDS011;22291;52.250;21.228;2024-01-15T06:53:43;19.77;;;12.80;;
36253;SDS011;22291;52.250;21.228;2024-01-15T06:56:11;22.95;;;13.28;;
36253;SDS011;22291;52.250;21.228;2024-01-15T06:58:37;22.87;;;13.10;;
36253;SDS011;22291;52.250;21.228;2024-01-15T07:01:05;17.67;;;12.37;;
36253;SDS011;22291;52.250;21.228;2024-01-15T07:03:31;20.95;;;13.32;;
36253;SDS011;22291;52.250;21.228;2024-01-15T07:05:58;22.60;;;13.22;;
36253;SDS011;22291;52.250;21.228;2024-01-15T07:08:24;23.18;;;13.72;;
36253;SDS011;22291;52.250;21.228;2024-01-15T07:10:50;23.85;;;14.05;;
36253;SDS011;22291;52.250;21.228;2024-01-15T07:13:18;20.50;;;13.15;;
36253;SDS011;22291;52.250;21.228;2024-01-15T07:15:44;20.35;;;13.13;;
36253;SDS011;22291;52.250;21.228;2024-01-15T07:18:10;20.08;;;13.43;;
36253;SDS011;22291;52.250;21.228;2024-01-15T07:20:37;21.20;;;13.15;;
36253;SDS011;22291;52.250;21.228;2024-01-15T07:23:05;20.25;;;13.10;;
36253;SDS011;22291;52.250;21.228;2024-01-15T07:25:32;24.75;;;13.75;;
36253;SDS011;22291;52.250;21.228;2024-01-15T07:27:58;20.95;;;12.58;;
36253;SDS011;22291;52.250;21.228;2024-01-15T07:30:24;20.92;;;13.22;;
36253;SDS011;22291;52.250;21.228;2024-01-15T07:32:50;19.82;;;13.48;;
36253;SDS011;22291;52.250;21.228;2024-01-15T07:35:18;19.67;;;12.45;;
36253;SDS011;22291;52.250;21.228;2024-01-15T07:37:45;19.37;;;12.88;;
36253;SDS011;22291;52.250;21.228;2024-01-15T07:40:11;18.85;;;12.33;;
36253;SDS011;22291;52.250;21.228;2024-01-15T07:42:39;19.25;;;12.13;;
36253;SDS011;22291;52.250;21.228;2024-01-15T07:45:07;21.55;;;13.35;;
36253;SDS011;22291;52.250;21.228;2024-01-15T07:47:34;20.48;;;12.53;;
36253;SDS011;22291;52.250;21.228;2024-01-15T07:50:00;22.77;;;13.18;;
36253;SDS011;22291;52.250;21.228;2024-01-15T07:52:30;20.57;;;13.05;;
36253;SDS011;22291;52.250;21.228;2024-01-15T07:54:57;20.65;;;12.93;;
36253;SDS011;22291;52.250;21.228;2024-01-15T07:57:28;21.35;;;13.32;;
36253;SDS011;22291;52.250;21.228;2024-01-15T07:59:56;20.43;;;12.68;;
36253;SDS011;22291;52.250;21.228;2024-01-15T08:02:22;23.65;;;12.80;;
36253;SDS011;22291;52.250;21.228;2024-01-15T08:04:48;21.37;;;12.60;;
36253;SDS011;22291;52.250;21.228;2024-01-15T08:07:16;19.75;;;11.90;;
36253;SDS011;22291;52.250;21.228;2024-01-15T08:09:44;21.85;;;11.70;;
36253;SDS011;22291;52.250;21.228;2024-01-15T08:12:13;21.25;;;12.65;;
36253;SDS011;22291;52.250;21.228;2024-01-15T08:14:39;19.98;;;12.73;;
36253;SDS011;22291;52.250;21.228;2024-01-15T08:17:07;21.07;;;13.10;;
36253;SDS011;22291;52.250;21.228;2024-01-15T08:19:33;20.37;;;12.07;;
36253;SDS011;22291;52.250;21.228;2024-01-15T08:22:01;22.00;;;12.13;;
36253;SDS011;22291;52.250;21.228;2024-01-15T08:24:28;20.43;;;11.53;;
36253;SDS011;22291;52.250;21.228;2024-01-15T08:26:54;18.70;;;10.98;;
36253;SDS011;22291;52.250;21.228;2024-01-15T08:29:22;18.00;;;10.88;;
36253;SDS011;22291;52.250;21.228;2024-01-15T08:31:51;20.65;;;11.50;;
36253;SDS011;22291;52.250;21.228;2024-01-15T08:34:17;18.25;;;12.03;;
36253;SDS011;22291;52.250;21.228;2024-01-15T08:36:43;20.17;;;11.38;;
36253;SDS011;22291;52.250;21.228;2024-01-15T08:39:09;18.20;;;11.45;;
36253;SDS011;22291;52.250;21.228;2024-01-15T08:41:38;15.70;;;10.28;;
36253;SDS011;22291;52.250;21.228;2024-01-15T08:44:04;20.17;;;10.45;;
36253;SDS011;22291;52.250;21.228;2024-01-15T08:46:32;16.77;;;11.05;;
36253;SDS011;22291;52.250;21.228;2024-01-15T08:48:59;16.45;;;10.35;;
36253;SDS011;22291;52.250;21.228;2024-01-15T08:51:25;32.60;;;19.87;;
36253;SDS011;22291;52.250;21.228;2024-01-15T08:53:53;20.40;;;11.80;;
36253;SDS011;22291;52.250;21.228;2024-01-15T08:56:19;19.98;;;12.98;;
36253;SDS011;22291;52.250;21.228;2024-01-15T08:58:45;14.38;;;9.65;;
36253;SDS011;22291;52.250;21.228;2024-01-15T09:01:12;15.63;;;9.63;;
36253;SDS011;22291;52.250;21.228;2024-01-15T09:03:38;16.07;;;10.38;;
36253;SDS011;22291;52.250;21.228;2024-01-15T09:06:10;13.68;;;9.95;;
36253;SDS011;22291;52.250;21.228;2024-01-15T09:08:37;16.48;;;10.60;;
36253;SDS011;22291;52.250;21.228;2024-01-15T09:11:05;18.52;;;10.38;;
36253;SDS011;22291;52.250;21.228;2024-01-15T09:13:31;14.60;;;9.95;;
36253;SDS011;22291;52.250;21.228;2024-01-15T09:15:58;16.42;;;10.43;;
36253;SDS011;22291;52.250;21.228;2024-01-15T09:18:26;15.80;;;9.75;;
36253;SDS011;22291;52.250;21.228;2024-01-15T09:20:54;13.70;;;10.05;;
36253;SDS011;22291;52.250;21.228;2024-01-15T09:23:22;15.38;;;10.40;;
36253;SDS011;22291;52.250;21.228;2024-01-15T09:25:49;15.35;;;10.28;;
36253;SDS011;22291;52.250;21.228;2024-01-15T09:28:15;16.82;;;9.95;;
36253;SDS011;22291;52.250;21.228;2024-01-15T09:30:41;13.40;;;9.60;;
36253;SDS011;22291;52.250;21.228;2024-01-15T09:33:07;15.60;;;10.30;;
36253;SDS011;22291;52.250;21.228;2024-01-15T09:35:35;14.70;;;9.20;;
36253;SDS011;22291;52.250;21.228;2024-01-15T09:38:03;18.15;;;10.32;;
36253;SDS011;22291;52.250;21.228;2024-01-15T09:40:31;15.72;;;10.18;;
36253;SDS011;22291;52.250;21.228;2024-01-15T09:43:02;14.53;;;9.55;;
36253;SDS011;22291;52.250;21.228;2024-01-15T09:45:30;15.32;;;9.93;;
36253;SDS011;22291;52.250;21.228;2024-01-15T09:47:58;14.33;;;9.75;;
36253;SDS011;22291;52.250;21.228;2024-01-15T09:50:27;14.20;;;9.20;;
36253;SDS011;22291;52.250;21.228;2024-01-15T09:52:53;13.62;;;8.88;;
36253;SDS011;22291;52.250;21.228;2024-01-15T09:55:24;13.03;;;7.87;;
36253;SDS011;22291;52.250;21.228;2024-01-15T09:57:52;14.78;;;8.55;;
36253;SDS011;22291;52.250;21.228;2024-01-15T10:00:21;11.78;;;7.22;;
36253;SDS011;22291;52.250;21.228;2024-01-15T10:02:50;11.73;;;7.42;;
36253;SDS011;22291;52.250;21.228;2024-01-15T10:05:18;10.88;;;6.33;;
36253;SDS011;22291;52.250;21.228;2024-01-15T10:07:46;11.25;;;6.97;;
36253;SDS011;22291;52.250;21.228;2024-01-15T10:10:16;8.58;;;5.92;;
36253;SDS011;22291;52.250;21.228;2024-01-15T10:12:42;14.58;;;7.33;;
36253;SDS011;22291;52.250;21.228;2024-01-15T10:15:10;11.05;;;6.45;;
36253;SDS011;22291;52.250;21.228;2024-01-15T10:17:39;11.18;;;7.03;;
36253;SDS011;22291;52.250;21.228;2024-01-15T10:20:09;9.88;;;7.05;;
36253;SDS011;22291;52.250;21.228;2024-01-15T10:22:41;12.40;;;7.20;;
36253;SDS011;22291;52.250;21.228;2024-01-15T10:25:13;8.95;;;5.87;;
36253;SDS011;22291;52.250;21.228;2024-01-15T10:27:42;10.72;;;6.25;;
36253;SDS011;22291;52.250;21.228;2024-01-15T10:30:12;10.65;;;6.08;;
36253;SDS011;22291;52.250;21.228;2024-01-15T10:32:40;9.13;;;6.17;;
36253;SDS011;22291;52.250;21.228;2024-01-15T10:35:08;11.05;;;6.47;;
36253;SDS011;22291;52.250;21.228;2024-01-15T10:37:36;11.12;;;5.95;;
36253;SDS011;22291;52.250;21.228;2024-01-15T10:40:05;11.95;;;6.22;;
36253;SDS011;22291;52.250;21.228;2024-01-15T10:42:33;10.32;;;6.35;;
36253;SDS011;22291;52.250;21.228;2024-01-15T10:45:04;13.62;;;6.80;;
36253;SDS011;22291;52.250;21.228;2024-01-15T10:47:34;13.98;;;6.67;;
36253;SDS011;22291;52.250;21.228;2024-01-15T10:50:06;12.37;;;7.45;;
36253;SDS011;22291;52.250;21.228;2024-01-15T10:52:35;11.48;;;6.45;;
36253;SDS011;22291;52.250;21.228;2024-01-15T10:55:11;11.68;;;6.12;;
36253;SDS011;22291;52.250;21.228;2024-01-15T10:57:38;12.00;;;6.75;;
36253;SDS011;22291;52.250;21.228;2024-01-15T11:00:10;22.42;;;14.98;;
36253;SDS011;22291;52.250;21.228;2024-01-15T11:02:38;11.85;;;7.22;;
36253;SDS011;22291;52.250;21.228;2024-01-15T11:05:08;11.70;;;6.60;;
36253;SDS011;22291;52.250;21.228;2024-01-15T11:07:35;12.58;;;6.42;;
36253;SDS011;22291;52.250;21.228;2024-01-15T11:10:09;13.88;;;7.85;;
36253;SDS011;22291;52.250;21.228;2024-01-15T11:13:14;18.20;;;7.78;;
36253;SDS011;22291;52.250;21.228;2024-01-15T11:15:57;10.70;;;7.12;;
36253;SDS011;22291;52.250;21.228;2024-01-15T11:18:37;12.78;;;7.58;;
36253;SDS011;22291;52.250;21.228;2024-01-15T11:21:27;14.18;;;7.03;;
36253;SDS011;22291;52.250;21.228;2024-01-15T11:23:58;11.45;;;6.70;;
36253;SDS011;22291;52.250;21.228;2024-01-15T11:29:06;13.80;;;6.90;;
36253;SDS011;22291;52.250;21.228;2024-01-15T11:34:15;13.38;;;7.03;;
36253;SDS011;22291;52.250;21.228;2024-01-15T11:42:00;13.93;;;7.22;;
36253;SDS011;22291;52.250;21.228;2024-01-15T11:44:31;14.13;;;7.40;;
36253;SDS011;22291;52.250;21.228;2024-01-15T11:47:03;13.10;;;7.58;;
36253;SDS011;22291;52.250;21.228;2024-01-15T11:52:34;14.90;;;7.65;;
36253;SDS011;22291;52.250;21.228;2024-01-15T11:55:11;13.93;;;8.05;;
36253;SDS011;22291;52.250;21.228;2024-01-15T11:57:55;14.60;;;7.50;;
36253;SDS011;22291;52.250;21.228;2024-01-15T12:00:27;13.85;;;7.87;;
36253;SDS011;22291;52.250;21.228;2024-01-15T12:02:58;15.05;;;8.03;;
36253;SDS011;22291;52.250;21.228;2024-01-15T12:05:29;17.27;;;8.00;;
36253;SDS011;22291;52.250;21.228;2024-01-15T12:07:55;19.40;;;11.03;;
36253;SDS011;22291;52.250;21.228;2024-01-15T12:10:23;24.18;;;13.72;;
36253;SDS011;22291;52.250;21.228;2024-01-15T12:15:40;15.13;;;7.53;;
36253;SDS011;22291;52.250;21.228;2024-01-15T12:18:13;11.70;;;7.20;;
36253;SDS011;22291;52.250;21.228;2024-01-15T12:20:47;15.43;;;8.05;;
36253;SDS011;22291;52.250;21.228;2024-01-15T12:23:14;15.60;;;8.38;;
36253;SDS011;22291;52.250;21.228;2024-01-15T12:25:44;13.08;;;6.97;;
36253;SDS011;22291;52.250;21.228;2024-01-15T12:28:10;16.80;;;8.35;;
36253;SDS011;22291;52.250;21.228;2024-01-15T12:30:37;23.02;;;12.85;;
36253;SDS011;22291;52.250;21.228;2024-01-15T12:33:06;17.45;;;9.90;;
36253;SDS011;22291;52.250;21.228;2024-01-15T12:35:35;15.65;;;8.83;;
36253;SDS011;22291;52.250;21.228;2024-01-15T12:38:06;14.55;;;8.73;;
36253;SDS011;22291;52.250;21.228;2024-01-15T12:40:33;16.50;;;9.43;;
36253;SDS011;22291;52.250;21.228;2024-01-15T12:43:00;14.63;;;8.65;;
36253;SDS011;22291;52.250;21.228;2024-01-15T12:45:31;13.05;;;8.18;;
36253;SDS011;22291;52.250;21.228;2024-01-15T12:47:58;16.90;;;9.58;;
36253;SDS011;22291;52.250;21.228;2024-01-15T12:50:27;18.37;;;9.55;;
36253;SDS011;22291;52.250;21.228;2024-01-15T12:52:53;15.00;;;9.25;;
36253;SDS011;22291;52.250;21.228;2024-01-15T12:55:22;19.95;;;9.35;;
36253;SDS011;22291;52.250;21.228;2024-01-15T12:57:49;19.40;;;10.28;;
36253;SDS011;22291;52.250;21.228;2024-01-15T13:00:20;18.35;;;10.03;;
36253;SDS011;22291;52.250;21.228;2024-01-15T13:02:47;29.90;;;17.02;;
36253;SDS011;22291;52.250;21.228;2024-01-15T13:05:17;20.08;;;11.53;;
36253;SDS011;22291;52.250;21.228;2024-01-15T13:07:46;18.87;;;11.75;;
36253;SDS011;22291;52.250;21.228;2024-01-15T13:10:15;23.75;;;10.48;;
36253;SDS011;22291;52.250;21.228;2024-01-15T13:12:43;21.52;;;10.90;;
36253;SDS011;22291;52.250;21.228;2024-01-15T13:15:09;20.45;;;10.08;;
36253;SDS011;22291;52.250;21.228;2024-01-15T13:17:38;18.07;;;9.38;;
36253;SDS011;22291;52.250;21.228;2024-01-15T13:20:11;21.07;;;9.43;;
36253;SDS011;22291;52.250;21.228;2024-01-15T13:22:41;15.53;;;8.75;;
36253;SDS011;22291;52.250;21.228;2024-01-15T13:25:09;19.95;;;9.55;;
36253;SDS011;22291;52.250;21.228;2024-01-15T13:27:37;16.73;;;10.25;;
36253;SDS011;22291;52.250;21.228;2024-01-15T13:30:08;18.70;;;10.72;;
36253;SDS011;22291;52.250;21.228;2024-01-15T13:32:42;20.02;;;10.45;;
36253;SDS011;22291;52.250;21.228;2024-01-15T13:35:08;15.30;;;9.43;;
36253;SDS011;22291;52.250;21.228;2024-01-15T13:37:36;17.67;;;9.80;;
36253;SDS011;22291;52.250;21.228;2024-01-15T13:40:09;15.25;;;9.48;;
36253;SDS011;22291;52.250;21.228;2024-01-15T13:42:45;20.20;;;9.70;;
36253;SDS011;22291;52.250;21.228;2024-01-15T13:45:23;18.70;;;9.50;;
36253;SDS011;22291;52.250;21.228;2024-01-15T13:47:49;17.95;;;9.68;;
36253;SDS011;22291;52.250;21.228;2024-01-15T13:50:16;19.48;;;9.65;;
36253;SDS011;22291;52.250;21.228;2024-01-15T13:52:42;17.87;;;10.20;;
36253;SDS011;22291;52.250;21.228;2024-01-15T13:55:09;18.48;;;9.78;;
36253;SDS011;22291;52.250;21.228;2024-01-15T13:57:35;19.25;;;9.38;;
36253;SDS011;22291;52.250;21.228;2024-01-15T14:00:06;17.02;;;9.55;;
36253;SDS011;22291;52.250;21.228;2024-01-15T14:02:42;22.15;;;10.10;;
36253;SDS011;22291;52.250;21.228;2024-01-15T14:05:10;16.95;;;9.43;;
36253;SDS011;22291;52.250;21.228;2024-01-15T14:07:38;17.80;;;9.83;;
36253;SDS011;22291;52.250;21.228;2024-01-15T14:10:09;21.17;;;10.15;;
36253;SDS011;22291;52.250;21.228;2024-01-15T14:12:37;18.07;;;9.45;;
36253;SDS011;22291;52.250;21.228;2024-01-15T14:15:08;18.17;;;9.20;;
36253;SDS011;22291;52.250;21.228;2024-01-15T14:17:37;17.98;;;9.20;;
36253;SDS011;22291;52.250;21.228;2024-01-15T14:20:09;20.35;;;10.25;;
36253;SDS011;22291;52.250;21.228;2024-01-15T14:22:38;23.40;;;10.68;;
36253;SDS011;22291;52.250;21.228;2024-01-15T14:25:08;22.93;;;10.45;;
36253;SDS011;22291;52.250;21.228;2024-01-15T14:27:36;20.68;;;9.68;;
36253;SDS011;22291;52.250;21.228;2024-01-15T14:30:07;21.80;;;10.00;;
36253;SDS011;22291;52.250;21.228;2024-01-15T14:32:41;20.63;;;11.13;;
36253;SDS011;22291;52.250;21.228;2024-01-15T14:35:11;18.92;;;9.48;;
36253;SDS011;22291;52.250;21.228;2024-01-15T14:37:37;21.12;;;9.93;;